createdAt,value
2023-02-25T00:00:42.237Z,2.9
2023-02-25T00:01:58.524Z,2.9
2023-02-25T00:03:14.820Z,2.9
2023-02-25T00:04:31.110Z,2.9
2023-02-25T00:05:47.412Z,2.9
2023-02-25T00:07:03.703Z,2.9
2023-02-25T00:08:19.988Z,2.9
2023-02-25T00:09:36.299Z,2.9
2023-02-25T00:10:52.593Z,3
2023-02-25T00:12:07.904Z,2.9
2023-02-25T00:13:24.193Z,2.9
2023-02-25T00:14:40.491Z,3
2023-02-25T00:15:56.788Z,3
2023-02-25T00:17:13.077Z,3
2023-02-25T00:18:29.361Z,3
2023-02-25T00:19:45.665Z,3
2023-02-25T00:21:01.961Z,3
2023-02-25T00:22:18.239Z,3
2023-02-25T00:23:34.542Z,3
2023-02-25T00:24:50.829Z,3
2023-02-25T00:26:07.129Z,3
2023-02-25T00:27:23.433Z,3
2023-02-25T00:28:38.737Z,3
2023-02-25T00:29:55.043Z,3
2023-02-25T00:31:11.318Z,3
2023-02-25T00:32:27.613Z,3.1
2023-02-25T00:33:43.904Z,3.1
2023-02-25T00:35:00.217Z,3.1
2023-02-25T00:36:16.490Z,3.1
2023-02-25T00:37:32.794Z,3.1
2023-02-25T00:38:49.101Z,3
2023-02-25T00:40:05.378Z,3
2023-02-25T00:41:21.679Z,3
2023-02-25T00:42:37.985Z,3
2023-02-25T00:43:54.269Z,3
2023-02-25T00:45:09.584Z,3
2023-02-25T00:46:25.863Z,3
2023-02-25T00:47:42.173Z,3
2023-02-25T00:48:58.463Z,3
2023-02-25T00:50:13.768Z,3
2023-02-25T00:51:30.069Z,3
2023-02-25T00:52:46.352Z,3
2023-02-25T00:54:02.665Z,3.1
2023-02-25T00:55:18.964Z,3.1
2023-02-25T00:56:35.242Z,3.1
2023-02-25T00:57:51.531Z,3.1
2023-02-25T00:59:07.827Z,3.1
2023-02-25T01:00:24.114Z,3.2
2023-02-25T01:01:40.422Z,3.2
2023-02-25T01:02:56.722Z,3.2
2023-02-25T01:04:13.011Z,3.2
2023-02-25T01:05:29.300Z,3.2
2023-02-25T01:06:44.610Z,3.2
2023-02-25T01:08:00.901Z,3.2
2023-02-25T01:09:17.196Z,3.2
2023-02-25T01:10:33.487Z,3.2
2023-02-25T01:11:49.778Z,3.2
2023-02-25T01:13:06.085Z,3.2
2023-02-25T01:14:22.376Z,3.2
2023-02-25T01:15:38.676Z,3.2
2023-02-25T01:16:54.959Z,3.2
2023-02-25T01:18:11.256Z,3.3
2023-02-25T01:19:27.544Z,3.2
2023-02-25T01:20:43.852Z,3.2
2023-02-25T01:22:00.138Z,3.2
2023-02-25T01:23:15.447Z,3.2
2023-02-25T01:24:31.741Z,3.2
2023-02-25T01:25:48.050Z,3.2
2023-02-25T01:27:04.343Z,3.2
2023-02-25T01:28:20.631Z,3.2
2023-02-25T01:29:36.918Z,3.2
2023-02-25T01:30:53.211Z,3.2
2023-02-25T01:32:09.523Z,3.2
2023-02-25T01:33:25.798Z,3.2
2023-02-25T01:34:42.097Z,3.2
2023-02-25T01:35:58.399Z,3.2
2023-02-25T01:37:14.689Z,3.2
2023-02-25T01:38:30.983Z,3.1
2023-02-25T01:39:47.406Z,3.2
2023-02-25T01:41:03.685Z,3.2
2023-02-25T01:42:19.990Z,3.1
2023-02-25T01:43:36.276Z,3.1
2023-02-25T01:44:52.567Z,3.2
2023-02-25T01:46:08.866Z,3.2
2023-02-25T01:47:25.149Z,3.2
2023-02-25T01:48:41.465Z,3.2
2023-02-25T01:49:57.750Z,3.2
2023-02-25T01:51:14.054Z,3.1
2023-02-25T01:52:30.346Z,3.1
2023-02-25T01:53:46.622Z,3.1
2023-02-25T01:55:02.918Z,3.1
2023-02-25T01:56:18.233Z,3.1
2023-02-25T01:57:34.540Z,3.1
2023-02-25T01:58:50.812Z,3.1
2023-02-25T02:00:07.119Z,3
2023-02-25T02:01:23.412Z,3
2023-02-25T02:02:39.703Z,3
2023-02-25T02:03:56.013Z,3
2023-02-25T02:05:12.294Z,3
2023-02-25T02:06:28.581Z,3
2023-02-25T02:07:44.870Z,3
2023-02-25T02:09:01.170Z,3
2023-02-25T02:10:17.474Z,3
2023-02-25T02:11:33.784Z,2.9
2023-02-25T02:12:49.069Z,2.9
2023-02-25T02:14:05.367Z,2.9
2023-02-25T02:15:21.652Z,2.9
2023-02-25T02:16:37.950Z,2.9
2023-02-25T02:17:54.242Z,2.9
2023-02-25T02:19:10.540Z,2.9
2023-02-25T02:20:26.838Z,2.9
2023-02-25T02:21:43.126Z,2.9
2023-02-25T02:22:59.438Z,2.9
2023-02-25T02:24:15.712Z,2.8
2023-02-25T02:25:32.019Z,2.8
2023-02-25T02:26:48.310Z,2.8
2023-02-25T02:28:04.595Z,2.8
2023-02-25T02:29:19.920Z,2.8
2023-02-25T02:30:36.205Z,2.8
2023-02-25T02:31:52.490Z,2.8
2023-02-25T02:33:08.797Z,2.8
2023-02-25T02:34:25.083Z,2.7
2023-02-25T02:35:41.391Z,2.7
2023-02-25T02:36:57.686Z,2.7
2023-02-25T02:38:13.963Z,2.7
2023-02-25T02:39:30.263Z,2.7
2023-02-25T02:40:46.555Z,2.7
2023-02-25T02:42:02.862Z,2.7
2023-02-25T02:43:19.151Z,2.6
2023-02-25T02:44:35.440Z,2.6
2023-02-25T02:45:50.753Z,2.6
2023-02-25T02:47:07.036Z,2.6
2023-02-25T02:48:23.347Z,2.6
2023-02-25T02:49:39.629Z,2.6
2023-02-25T02:50:55.919Z,2.6
2023-02-25T02:52:12.217Z,2.6
2023-02-25T02:53:28.524Z,2.6
2023-02-25T02:54:44.817Z,2.6
2023-02-25T02:56:01.101Z,2.7
2023-02-25T02:57:17.392Z,2.7
2023-02-25T02:58:33.691Z,2.7
2023-02-25T02:59:50.002Z,2.7
2023-02-25T03:01:06.295Z,2.6
2023-02-25T03:02:21.584Z,2.6
2023-02-25T03:03:37.880Z,2.6
2023-02-25T03:04:54.175Z,2.6
2023-02-25T03:06:10.485Z,2.5
2023-02-25T03:07:26.759Z,2.5
2023-02-25T03:08:43.070Z,2.5
2023-02-25T03:09:59.357Z,2.4
2023-02-25T03:11:15.646Z,2.3
2023-02-25T03:12:31.940Z,2.3
2023-02-25T03:13:48.250Z,2.2
2023-02-25T03:15:04.526Z,2.2
2023-02-25T03:16:20.822Z,2.1
2023-02-25T03:17:37.123Z,2
2023-02-25T03:18:52.433Z,1.9
2023-02-25T03:20:08.731Z,1.9
2023-02-25T03:21:25.028Z,1.8
2023-02-25T03:22:41.309Z,1.7
2023-02-25T03:23:57.603Z,1.7
2023-02-25T03:25:13.895Z,1.6
2023-02-25T03:26:30.207Z,1.5
2023-02-25T03:27:46.485Z,1.4
2023-02-25T03:29:02.782Z,1.4
2023-02-25T03:30:19.079Z,1.3
2023-02-25T03:31:35.377Z,1.2
2023-02-25T03:32:51.657Z,1.2
2023-02-25T03:34:07.956Z,1
2023-02-25T03:35:23.268Z,1
2023-02-25T03:36:39.560Z,0.9
2023-02-25T03:37:55.858Z,0.8
2023-02-25T03:39:12.148Z,0.8
2023-02-25T03:40:28.449Z,0.7
2023-02-25T03:41:44.734Z,0.7
2023-02-25T03:43:01.036Z,0.6
2023-02-25T03:44:17.333Z,0.6
2023-02-25T03:45:33.628Z,0.6
2023-02-25T03:46:49.921Z,0.6
2023-02-25T03:48:06.212Z,0.6
2023-02-25T03:49:22.501Z,0.6
2023-02-25T03:50:38.796Z,0.6
2023-02-25T03:51:54.116Z,0.6
2023-02-25T03:53:10.391Z,0.6
2023-02-25T03:54:26.696Z,0.6
2023-02-25T03:55:42.988Z,0.6
2023-02-25T03:56:59.273Z,0.5
2023-02-25T03:58:15.583Z,0.5
2023-02-25T03:59:31.877Z,0.5
2023-02-25T04:00:48.164Z,0.5
2023-02-25T04:02:04.468Z,0.5
2023-02-25T04:03:20.744Z,0.5
2023-02-25T04:04:37.050Z,0.5
2023-02-25T04:05:53.346Z,0.4
2023-02-25T04:07:09.641Z,0.4
2023-02-25T04:08:24.956Z,0.4
2023-02-25T04:09:41.246Z,0.4
2023-02-25T04:10:57.525Z,0.4
2023-02-25T04:12:13.826Z,0.3
2023-02-25T04:13:30.122Z,0.3
2023-02-25T04:14:46.415Z,0.3
2023-02-25T04:16:02.713Z,0.3
2023-02-25T04:17:18.994Z,0.4
2023-02-25T04:18:35.298Z,0.4
2023-02-25T04:19:51.603Z,0.4
2023-02-25T04:21:07.903Z,0.4
2023-02-25T04:22:24.188Z,0.4
2023-02-25T04:23:40.490Z,0.4
2023-02-25T04:24:55.793Z,0.4
2023-02-25T04:26:12.079Z,0.4
2023-02-25T04:27:28.383Z,0.4
2023-02-25T04:28:44.678Z,0.4
2023-02-25T04:30:00.974Z,0.4
2023-02-25T04:31:17.267Z,0.5
2023-02-25T04:32:33.560Z,0.5
2023-02-25T04:33:49.842Z,0.5
2023-02-25T04:35:06.138Z,0.5
2023-02-25T04:36:22.425Z,0.5
2023-02-25T04:37:38.730Z,0.5
2023-02-25T04:38:55.039Z,0.5
2023-02-25T04:40:11.322Z,0.5
2023-02-25T04:41:26.631Z,0.5
2023-02-25T04:42:42.920Z,0.5
2023-02-25T04:43:59.205Z,0.5
2023-02-25T04:45:15.508Z,0.5
2023-02-25T04:46:31.802Z,0.5
2023-02-25T04:47:48.095Z,0.5
2023-02-25T04:49:04.384Z,0.6
2023-02-25T04:50:20.691Z,0.6
2023-02-25T04:51:36.981Z,0.6
2023-02-25T04:52:53.263Z,0.6
2023-02-25T04:54:09.563Z,0.7
2023-02-25T04:55:25.865Z,0.7
2023-02-25T04:56:42.155Z,0.7
2023-02-25T04:57:57.477Z,0.8
2023-02-25T04:59:13.758Z,0.8
2023-02-25T05:00:30.049Z,0.8
2023-02-25T05:01:46.352Z,0.9
2023-02-25T05:03:02.655Z,0.9
2023-02-25T05:04:18.934Z,0.9
2023-02-25T05:05:34.247Z,1
2023-02-25T05:06:50.556Z,1
2023-02-25T05:08:06.840Z,1
2023-02-25T05:09:23.152Z,1
2023-02-25T05:10:39.429Z,0.9
2023-02-25T05:11:55.723Z,0.9
2023-02-25T05:13:12.021Z,1
2023-02-25T05:14:28.327Z,1
2023-02-25T05:15:44.598Z,1
2023-02-25T05:17:00.906Z,1
2023-02-25T05:18:17.197Z,1.1
2023-02-25T05:19:33.482Z,1.1
2023-02-25T05:20:49.797Z,1.1
2023-02-25T05:22:05.087Z,1.1
2023-02-25T05:23:21.401Z,1.2
2023-02-25T05:24:37.694Z,1.2
2023-02-25T05:25:53.973Z,1.2
2023-02-25T05:27:10.265Z,1.2
2023-02-25T05:28:26.552Z,1.2
2023-02-25T05:29:42.861Z,1.2
2023-02-25T05:30:59.163Z,1.2
2023-02-25T05:32:15.436Z,1.2
2023-02-25T05:33:31.739Z,1.2
2023-02-25T05:34:48.045Z,1.3
2023-02-25T05:36:04.321Z,1.3
2023-02-25T05:37:20.623Z,1.3
2023-02-25T05:38:35.938Z,1.3
2023-02-25T05:39:52.216Z,1.3
2023-02-25T05:41:08.465Z,1.3
2023-02-25T05:42:24.719Z,1.3
2023-02-25T05:43:40.000Z,1.4
2023-02-25T05:44:57.200Z,1.3
2023-02-25T05:46:13.438Z,1.4
2023-02-25T05:47:29.676Z,1.4
2023-02-25T05:48:45.914Z,1.4
2023-02-25T05:50:02.148Z,1.4
2023-02-25T05:51:18.390Z,1.4
2023-02-25T05:52:34.635Z,1.4
2023-02-25T05:53:50.861Z,1.4
2023-02-25T05:55:06.123Z,1.5
2023-02-25T05:56:22.368Z,1.5
2023-02-25T05:57:38.610Z,1.4
2023-02-25T05:58:54.844Z,1.5
2023-02-25T06:00:11.088Z,1.5
2023-02-25T06:01:27.320Z,1.5
2023-02-25T06:02:43.557Z,1.5
2023-02-25T06:03:59.804Z,1.5
2023-02-25T06:05:16.044Z,1.5
2023-02-25T06:06:32.286Z,1.5
2023-02-25T06:07:48.533Z,1.5
2023-02-25T06:09:04.769Z,1.5
2023-02-25T06:10:21.006Z,1.6
2023-02-25T06:11:36.276Z,1.6
2023-02-25T06:12:52.502Z,1.6
2023-02-25T06:14:08.728Z,1.6
2023-02-25T06:15:24.986Z,1.6
2023-02-25T06:16:41.219Z,1.6
2023-02-25T06:17:57.478Z,1.7
2023-02-25T06:19:13.699Z,1.6
2023-02-25T06:20:29.936Z,1.6
2023-02-25T06:21:46.178Z,1.7
2023-02-25T06:23:02.423Z,1.7
2023-02-25T06:24:18.668Z,1.7
2023-02-25T06:25:34.894Z,1.7
2023-02-25T06:26:51.142Z,1.7
2023-02-25T06:28:06.398Z,1.7
2023-02-25T06:29:22.642Z,1.8
2023-02-25T06:30:38.872Z,1.8
2023-02-25T06:31:55.111Z,1.8
2023-02-25T06:33:11.355Z,1.8
2023-02-25T06:34:27.606Z,1.8
2023-02-25T06:35:43.835Z,1.8
2023-02-25T06:37:00.088Z,1.8
2023-02-25T06:38:16.306Z,1.8
2023-02-25T06:39:32.575Z,1.8
2023-02-25T06:40:48.795Z,1.8
2023-02-25T06:42:05.040Z,1.8
2023-02-25T06:43:21.000Z,1.8
2023-02-25T06:44:36.538Z,1.8
2023-02-25T06:45:52.779Z,1.8
2023-02-25T06:47:09.015Z,1.8
2023-02-25T06:48:25.242Z,1.8
2023-02-25T06:49:41.505Z,1.9
2023-02-25T06:50:57.738Z,1.9
2023-02-25T06:52:13.984Z,1.8
2023-02-25T06:53:30.214Z,1.9
2023-02-25T06:54:46.458Z,1.9
2023-02-25T06:56:02.708Z,1.9
2023-02-25T06:57:18.923Z,1.9
2023-02-25T06:58:35.172Z,1.9
2023-02-25T06:59:51.423Z,1.9
2023-02-25T07:01:06.676Z,1.9
2023-02-25T07:02:22.911Z,1.9
2023-02-25T07:03:39.144Z,1.9
2023-02-25T07:04:55.403Z,1.9
2023-02-25T07:06:11.646Z,1.9
2023-02-25T07:07:27.859Z,1.9
2023-02-25T07:08:44.117Z,2
2023-02-25T07:10:00.341Z,2
2023-02-25T07:11:16.589Z,1.9
2023-02-25T07:12:32.838Z,1.9
2023-02-25T07:13:49.064Z,1.9
2023-02-25T07:15:05.327Z,1.9
2023-02-25T07:16:21.538Z,1.9
2023-02-25T07:17:36.809Z,1.9
2023-02-25T07:18:53.055Z,1.9
2023-02-25T07:20:09.279Z,1.9
2023-02-25T07:21:25.537Z,1.9
2023-02-25T07:22:41.772Z,1.9
2023-02-25T07:23:58.006Z,1.9
2023-02-25T07:25:14.257Z,1.9
2023-02-25T07:26:30.488Z,1.9
2023-02-25T07:27:46.727Z,1.8
2023-02-25T07:29:02.966Z,1.8
2023-02-25T07:30:19.206Z,1.8
2023-02-25T07:31:35.447Z,1.8
2023-02-25T07:32:51.687Z,1.7
2023-02-25T07:34:06.937Z,1.7
2023-02-25T07:35:23.181Z,1.7
2023-02-25T07:36:39.439Z,1.7
2023-02-25T07:37:55.676Z,1.7
2023-02-25T07:39:11.909Z,1.7
2023-02-25T07:40:28.148Z,1.7
2023-02-25T07:41:44.380Z,1.8
2023-02-25T07:43:00.633Z,1.8
2023-02-25T07:44:16.857Z,1.8
2023-02-25T07:45:33.106Z,1.8
2023-02-25T07:46:49.360Z,1.8
2023-02-25T07:48:05.581Z,1.8
2023-02-25T07:49:21.823Z,1.7
2023-02-25T07:50:37.068Z,1.7
2023-02-25T07:51:53.308Z,1.7
2023-02-25T07:53:09.570Z,1.7
2023-02-25T07:54:25.807Z,1.7
2023-02-25T07:55:42.032Z,1.7
2023-02-25T07:56:58.281Z,1.7
2023-02-25T07:58:14.539Z,1.7
2023-02-25T07:59:30.763Z,1.7
2023-02-25T08:00:47.004Z,1.6
2023-02-25T08:02:03.240Z,1.6
2023-02-25T08:03:19.489Z,1.6
2023-02-25T08:04:35.734Z,1.6
2023-02-25T08:05:51.968Z,1.6
2023-02-25T08:07:07.216Z,1.5
2023-02-25T08:08:23.461Z,1.5
2023-02-25T08:09:39.701Z,1.5
2023-02-25T08:10:55.937Z,1.5
2023-02-25T08:12:12.182Z,1.4
2023-02-25T08:13:28.404Z,1.4
2023-02-25T08:14:44.655Z,1.3
2023-02-25T08:16:00.894Z,1.3
2023-02-25T08:17:17.143Z,1.3
2023-02-25T08:18:33.391Z,1.3
2023-02-25T08:19:49.611Z,1.3
2023-02-25T08:21:05.868Z,1.2
2023-02-25T08:22:22.085Z,1.2
2023-02-25T08:23:37.000Z,1.2
2023-02-25T08:24:53.593Z,1.2
2023-02-25T08:26:09.836Z,1.1
2023-02-25T08:27:26.063Z,1.1
2023-02-25T08:28:42.322Z,1.1
2023-02-25T08:29:58.541Z,1.1
2023-02-25T08:31:14.794Z,1.2
2023-02-25T08:32:31.025Z,1.1
2023-02-25T08:33:47.289Z,1.1
2023-02-25T08:35:03.529Z,1.2
2023-02-25T08:36:19.762Z,1.1
2023-02-25T08:37:35.995Z,1.1
2023-02-25T08:38:52.232Z,1.1
2023-02-25T08:40:07.505Z,1
2023-02-25T08:41:23.744Z,0.9
2023-02-25T08:42:39.956Z,0.8
2023-02-25T08:43:56.215Z,0.7
2023-02-25T08:45:12.448Z,0.6
2023-02-25T08:46:28.699Z,0.6
2023-02-25T08:47:44.940Z,0.6
2023-02-25T08:49:01.167Z,0.6
2023-02-25T08:50:17.412Z,0.6
2023-02-25T08:51:33.656Z,0.6
2023-02-25T08:52:49.888Z,0.6
2023-02-25T08:54:06.122Z,0.6
2023-02-25T08:55:22.384Z,0.6
2023-02-25T08:56:37.615Z,0.6
2023-02-25T08:57:53.856Z,0.6
2023-02-25T08:59:10.121Z,0.6
2023-02-25T09:00:26.356Z,0.6
2023-02-25T09:01:42.579Z,0.6
2023-02-25T09:02:58.837Z,0.6
2023-02-25T09:04:15.053Z,0.6
2023-02-25T09:05:31.312Z,0.5
2023-02-25T09:06:47.561Z,0.5
2023-02-25T09:08:03.791Z,0.5
2023-02-25T09:09:20.033Z,0.5
2023-02-25T09:10:36.268Z,0.5
2023-02-25T09:11:52.514Z,0.6
2023-02-25T09:13:07.753Z,0.6
2023-02-25T09:14:24.004Z,0.6
2023-02-25T09:15:40.260Z,0.6
2023-02-25T09:16:56.474Z,0.7
2023-02-25T09:18:12.720Z,0.7
2023-02-25T09:19:28.979Z,0.7
2023-02-25T09:20:44.235Z,0.7
2023-02-25T09:22:00.475Z,0.7
2023-02-25T09:23:16.715Z,0.8
2023-02-25T09:24:32.958Z,0.8
2023-02-25T09:25:49.187Z,0.9
2023-02-25T09:27:05.416Z,0.9
2023-02-25T09:28:21.678Z,0.9
2023-02-25T09:29:37.900Z,1
2023-02-25T09:30:54.150Z,1.1
2023-02-25T09:32:10.375Z,1.1
2023-02-25T09:33:26.637Z,1.2
2023-02-25T09:34:42.887Z,1.3
2023-02-25T09:35:59.095Z,1.3
2023-02-25T09:37:15.365Z,1.3
2023-02-25T09:39:46.851Z,1.3
2023-02-25T09:41:03.085Z,1.3
2023-02-25T09:42:19.311Z,1.3
2023-02-25T09:43:35.555Z,1.4
2023-02-25T09:44:51.807Z,1.4
2023-02-25T09:46:08.048Z,1.4
2023-02-25T09:47:24.302Z,1.4
2023-02-25T09:48:40.541Z,1.4
2023-02-25T09:49:56.784Z,1.5
2023-02-25T09:51:12.999Z,1.5
2023-02-25T09:52:29.258Z,1.4
2023-02-25T09:53:45.495Z,1.5
2023-02-25T09:55:00.757Z,1.6
2023-02-25T09:56:16.968Z,1.6
2023-02-25T09:57:33.212Z,1.6
2023-02-25T09:58:49.466Z,1.6
2023-02-25T10:00:05.720Z,1.6
2023-02-25T10:01:21.946Z,1.6
2023-02-25T10:02:38.198Z,1.5
2023-02-25T10:03:54.411Z,1.6
2023-02-25T10:05:10.652Z,1.6
2023-02-25T10:06:26.910Z,1.6
2023-02-25T10:07:43.151Z,1.7
2023-02-25T10:08:59.390Z,1.7
2023-02-25T10:10:15.609Z,1.7
2023-02-25T10:11:30.894Z,1.7
2023-02-25T10:12:47.140Z,1.7
2023-02-25T10:14:03.345Z,1.7
2023-02-25T10:15:19.618Z,1.6
2023-02-25T10:16:35.837Z,1.6
2023-02-25T10:17:52.074Z,1.6
2023-02-25T10:19:08.308Z,1.6
2023-02-25T10:20:24.578Z,1.6
2023-02-25T10:21:40.807Z,1.6
2023-02-25T10:22:57.047Z,1.6
2023-02-25T10:24:13.285Z,1.5
2023-02-25T10:25:29.505Z,1.5
2023-02-25T10:26:45.766Z,1.5
2023-02-25T10:28:02.126Z,1.5
2023-02-25T10:29:18.350Z,1.5
2023-02-25T10:30:34.602Z,1.5
2023-02-25T10:31:50.857Z,1.5
2023-02-25T10:33:07.066Z,1.6
2023-02-25T10:34:23.330Z,1.6
2023-02-25T10:35:39.562Z,1.6
2023-02-25T10:36:55.809Z,1.6
2023-02-25T10:38:12.041Z,1.6
2023-02-25T10:39:28.293Z,1.6
2023-02-25T10:40:44.539Z,1.5
2023-02-25T10:42:00.763Z,1.6
2023-02-25T10:43:17.003Z,1.7
2023-02-25T10:44:32.243Z,1.7
2023-02-25T10:45:48.487Z,1.7
2023-02-25T10:47:04.755Z,1.7
2023-02-25T10:48:20.988Z,1.7
2023-02-25T10:49:37.203Z,1.7
2023-02-25T10:50:53.465Z,1.7
2023-02-25T10:52:09.704Z,1.7
2023-02-25T10:53:25.942Z,1.8
2023-02-25T10:54:42.195Z,1.8
2023-02-25T10:55:58.427Z,1.8
2023-02-25T10:57:14.666Z,1.8
2023-02-25T10:58:30.884Z,1.7
2023-02-25T10:59:47.127Z,1.8
2023-02-25T11:01:02.383Z,1.8
2023-02-25T11:02:18.641Z,1.8
2023-02-25T11:03:34.884Z,1.8
2023-02-25T11:04:51.134Z,1.8
2023-02-25T11:06:07.365Z,1.8
2023-02-25T11:07:23.589Z,1.9
2023-02-25T11:08:39.833Z,1.9
2023-02-25T11:09:56.081Z,1.9
2023-02-25T11:11:12.315Z,1.9
2023-02-25T11:12:28.567Z,1.9
2023-02-25T11:13:44.814Z,1.9
2023-02-25T11:15:01.025Z,1.9
2023-02-25T11:16:17.294Z,1.9
2023-02-25T11:17:32.538Z,2
2023-02-25T11:18:48.787Z,1.9
2023-02-25T11:20:05.015Z,1.9
2023-02-25T11:21:21.262Z,1.8
2023-02-25T11:22:37.495Z,1.8
2023-02-25T11:23:53.737Z,1.7
2023-02-25T11:25:09.987Z,1.7
2023-02-25T11:26:26.226Z,1.8
2023-02-25T11:27:42.458Z,1.9
2023-02-25T11:28:58.695Z,1.9
2023-02-25T11:30:14.940Z,2
2023-02-25T11:31:31.153Z,2.1
2023-02-25T11:32:47.428Z,2.1
2023-02-25T11:34:02.649Z,2.2
2023-02-25T11:35:18.913Z,2.2
2023-02-25T11:36:35.142Z,2.2
2023-02-25T11:37:51.390Z,2.2
2023-02-25T11:39:07.613Z,2.2
2023-02-25T11:40:23.871Z,2.2
2023-02-25T11:41:40.093Z,2.2
2023-02-25T11:42:56.352Z,2.2
2023-02-25T11:44:12.600Z,2.2
2023-02-25T11:45:28.830Z,2.3
2023-02-25T11:46:45.084Z,2.3
2023-02-25T11:48:01.314Z,2.3
2023-02-25T11:49:17.529Z,2.3
2023-02-25T11:50:32.818Z,2.5
2023-02-25T11:51:49.041Z,2.5
2023-02-25T11:53:05.280Z,2.5
2023-02-25T11:54:21.538Z,2.5
2023-02-25T11:55:37.765Z,2.5
2023-02-25T11:56:54.015Z,2.5
2023-02-25T11:58:10.258Z,2.5
2023-02-25T11:59:26.494Z,2.5
2023-02-25T12:00:42.705Z,2.5
2023-02-25T12:01:58.964Z,2.5
2023-02-25T12:03:15.221Z,2.4
2023-02-25T12:04:31.453Z,2.4
2023-02-25T12:05:47.671Z,2.3
2023-02-25T12:07:04.063Z,2.2
2023-02-25T12:08:20.288Z,2.1
2023-02-25T12:09:36.543Z,2.1
2023-02-25T12:10:52.765Z,2.2
2023-02-25T12:12:09.004Z,2.2
2023-02-25T12:13:25.249Z,2.2
2023-02-25T12:14:41.472Z,2.2
2023-02-25T12:15:57.737Z,2.3
2023-02-25T12:17:13.966Z,2.3
2023-02-25T12:18:30.217Z,2.4
2023-02-25T12:19:46.452Z,2.4
2023-02-25T12:21:02.692Z,2.4
2023-02-25T12:22:18.937Z,2.5
2023-02-25T12:23:34.167Z,2.5
2023-02-25T12:24:50.415Z,2.4
2023-02-25T12:26:06.671Z,2.3
2023-02-25T12:27:22.911Z,2.2
2023-02-25T12:28:39.159Z,2.2
2023-02-25T12:29:55.371Z,2.2
2023-02-25T12:31:11.608Z,2.2
2023-02-25T12:32:27.864Z,2.2
2023-02-25T12:33:44.110Z,2.2
2023-02-25T12:35:00.359Z,2.2
2023-02-25T12:36:16.584Z,2.3
2023-02-25T12:37:32.828Z,2.3
2023-02-25T12:38:49.069Z,2.3
2023-02-25T12:40:04.306Z,2.3
2023-02-25T12:41:20.578Z,2.2
2023-02-25T12:42:36.785Z,2.3
2023-02-25T12:43:53.043Z,2.3
2023-02-25T12:45:09.263Z,2.3
2023-02-25T12:46:25.500Z,2.3
2023-02-25T12:47:41.772Z,2.2
2023-02-25T12:48:58.012Z,2.2
2023-02-25T12:50:14.241Z,2.2
2023-02-25T12:51:30.496Z,2.2
2023-02-25T12:52:46.721Z,2.2
2023-02-25T12:54:02.948Z,2.2
2023-02-25T12:55:19.206Z,2.2
2023-02-25T12:56:34.459Z,2.2
2023-02-25T12:57:50.679Z,2.2
2023-02-25T12:59:06.952Z,2.1
2023-02-25T13:00:23.180Z,2.1
2023-02-25T13:01:39.405Z,2.3
2023-02-25T13:02:55.676Z,2.3
2023-02-25T13:04:11.878Z,2.3
2023-02-25T13:05:28.142Z,2.3
2023-02-25T13:06:44.385Z,2.2
2023-02-25T13:08:00.601Z,2.2
2023-02-25T13:09:16.869Z,2.2
2023-02-25T13:10:33.099Z,2.1
2023-02-25T13:11:49.338Z,2.1
2023-02-25T13:13:04.612Z,2.1
2023-02-25T13:14:20.844Z,2.1
2023-02-25T13:15:37.083Z,2
2023-02-25T13:16:53.308Z,1.8
2023-02-25T13:18:09.571Z,1.6
2023-02-25T13:19:25.807Z,1.4
2023-02-25T13:20:42.036Z,1.1
2023-02-25T13:21:58.287Z,1.1
2023-02-25T13:23:14.517Z,1.1
2023-02-25T13:24:30.760Z,1.2
2023-02-25T13:25:47.013Z,1.2
2023-02-25T13:27:03.244Z,1.2
2023-02-25T13:28:19.461Z,1.3
2023-02-25T13:29:34.738Z,1.3
2023-02-25T13:30:50.982Z,1.3
2023-02-25T13:32:07.206Z,1.4
2023-02-25T13:33:23.433Z,1.4
2023-02-25T13:34:39.679Z,1.5
2023-02-25T13:35:54.959Z,1.6
2023-02-25T13:37:11.177Z,1.6
2023-02-25T13:38:27.452Z,1.7
2023-02-25T13:39:43.664Z,1.8
2023-02-25T13:40:59.925Z,1.9
2023-02-25T13:42:16.164Z,2
2023-02-25T13:43:32.405Z,2.1
2023-02-25T13:44:48.650Z,2.1
2023-02-25T13:46:04.885Z,2.1
2023-02-25T13:47:21.132Z,2.1
2023-02-25T13:48:37.336Z,2.2
2023-02-25T13:49:53.610Z,2.2
2023-02-25T13:51:09.850Z,2.2
2023-02-25T13:52:25.110Z,2.2
2023-02-25T13:53:41.314Z,2.2
2023-02-25T13:54:57.556Z,2.2
2023-02-25T13:56:13.821Z,2.2
2023-02-25T13:57:30.070Z,2.2
2023-02-25T13:58:46.308Z,2.2
2023-02-25T14:00:02.526Z,2.3
2023-02-25T14:01:18.755Z,2.3
2023-02-25T14:02:35.014Z,2.2
2023-02-25T14:03:51.268Z,2.2
2023-02-25T14:05:07.499Z,2.2
2023-02-25T14:06:23.745Z,2.3
2023-02-25T14:07:39.970Z,2.3
2023-02-25T14:08:55.231Z,2.3
2023-02-25T14:10:11.472Z,2.4
2023-02-25T14:11:27.712Z,2.4
2023-02-25T14:12:43.950Z,2.4
2023-02-25T14:14:00.194Z,2.3
2023-02-25T14:15:16.435Z,2.3
2023-02-25T14:16:32.686Z,2.3
2023-02-25T14:17:48.910Z,2.3
2023-02-25T14:19:05.128Z,2.3
2023-02-25T14:20:21.399Z,2.2
2023-02-25T14:21:37.626Z,2.1
2023-02-25T14:22:53.859Z,2.1
2023-02-25T14:24:10.108Z,2.1
2023-02-25T14:25:25.379Z,2.1
2023-02-25T14:26:41.621Z,2.1
2023-02-25T14:27:57.861Z,2.1
2023-02-25T14:29:14.097Z,2.2
2023-02-25T14:30:30.336Z,2.1
2023-02-25T14:31:46.580Z,2
2023-02-25T14:33:02.808Z,2
2023-02-25T14:34:19.029Z,2
2023-02-25T14:35:35.291Z,1.9
2023-02-25T14:36:51.539Z,1.9
2023-02-25T14:38:07.770Z,1.9
2023-02-25T14:39:24.007Z,1.9
2023-02-25T14:40:40.246Z,1.9
2023-02-25T14:41:55.504Z,1.9
2023-02-25T14:43:11.753Z,1.8
2023-02-25T14:44:27.996Z,1.7
2023-02-25T14:45:44.231Z,1.7
2023-02-25T14:47:00.443Z,1.7
2023-02-25T14:48:16.695Z,1.6
2023-02-25T14:49:32.935Z,1.2
2023-02-25T14:50:49.199Z,0.9
2023-02-25T14:52:05.428Z,0.5
2023-02-25T14:53:21.665Z,0.2
2023-02-25T14:54:37.904Z,0
2023-02-25T14:55:54.124Z,-0.1
2023-02-25T14:57:10.392Z,-0.1
2023-02-25T14:58:25.658Z,-0.2
2023-02-25T14:59:41.863Z,-0.2
2023-02-25T15:00:58.120Z,-0.2
2023-02-25T15:02:14.365Z,-0.2
2023-02-25T15:03:30.600Z,-0.2
2023-02-25T15:04:46.848Z,-0.2
2023-02-25T15:06:03.092Z,-0.2
2023-02-25T15:08:35.577Z,-0.2
2023-02-25T15:09:51.810Z,-0.2
2023-02-25T15:11:08.043Z,-0.2
2023-02-25T15:12:24.266Z,-0.2
2023-02-25T15:13:40.535Z,-0.1
2023-02-25T15:14:56.748Z,-0.1
2023-02-25T15:16:12.000Z,-0.1
2023-02-25T15:17:28.261Z,0
2023-02-25T15:18:44.508Z,0
2023-02-25T15:20:00.737Z,0
2023-02-25T15:21:16.986Z,0
2023-02-25T15:22:33.201Z,0
2023-02-25T15:23:49.463Z,0.1
2023-02-25T15:25:05.702Z,0.1
2023-02-25T15:26:21.943Z,0.2
2023-02-25T15:27:38.180Z,0.2
2023-02-25T15:28:54.420Z,0.3
2023-02-25T15:30:10.667Z,0.3
2023-02-25T15:31:26.881Z,0.3
2023-02-25T15:32:43.138Z,0.3
2023-02-25T15:33:58.382Z,0.3
2023-02-25T15:35:14.640Z,0.3
2023-02-25T15:36:30.878Z,0.4
2023-02-25T15:37:47.121Z,0.4
2023-02-25T15:39:03.358Z,0.4
2023-02-25T15:40:19.601Z,0.4
2023-02-25T15:41:35.822Z,0.4
2023-02-25T15:42:52.089Z,0.4
2023-02-25T15:44:08.316Z,0.4
2023-02-25T15:45:24.568Z,0.4
2023-02-25T15:46:40.795Z,0.4
2023-02-25T15:47:57.045Z,0.5
2023-02-25T15:49:13.279Z,0.5
2023-02-25T15:50:29.652Z,0.5
2023-02-25T15:51:45.892Z,0.4
2023-02-25T15:53:02.128Z,0.4
2023-02-25T15:54:18.345Z,0.4
2023-02-25T15:55:34.598Z,0.4
2023-02-25T15:56:50.844Z,0.4
2023-02-25T15:58:07.085Z,0.4
2023-02-25T15:59:23.326Z,0.4
2023-02-25T16:00:39.544Z,0.3
2023-02-25T16:01:55.795Z,0.3
2023-02-25T16:03:12.022Z,0.3
2023-02-25T16:04:28.287Z,0.4
2023-02-25T16:05:44.522Z,0.3
2023-02-25T16:06:59.783Z,0.3
2023-02-25T16:08:16.020Z,0.4
2023-02-25T16:09:32.238Z,0.4
2023-02-25T16:10:48.479Z,0.4
2023-02-25T16:12:04.721Z,0.4
2023-02-25T16:13:20.964Z,0.4
2023-02-25T16:14:37.230Z,0.4
2023-02-25T16:15:53.439Z,0.4
2023-02-25T16:17:09.709Z,0.4
2023-02-25T16:18:25.929Z,0.4
2023-02-25T16:19:42.164Z,0.5
2023-02-25T16:20:58.421Z,0.4
2023-02-25T16:22:14.662Z,0.5
2023-02-25T16:23:29.934Z,0.5
2023-02-25T16:24:46.156Z,0.5
2023-02-25T16:26:02.406Z,0.5
2023-02-25T16:27:18.646Z,0.5
2023-02-25T16:28:34.866Z,0.5
2023-02-25T16:29:51.122Z,0.5
2023-02-25T16:31:07.338Z,0.5
2023-02-25T16:32:23.613Z,0.5
2023-02-25T16:33:39.853Z,0.5
2023-02-25T16:34:56.096Z,0.5
2023-02-25T16:36:12.333Z,0.5
2023-02-25T16:37:28.551Z,0.5
2023-02-25T16:38:44.810Z,0.5
2023-02-25T16:40:00.066Z,0.5
2023-02-25T16:41:16.305Z,0.5
2023-02-25T16:42:32.549Z,0.5
2023-02-25T16:43:48.792Z,0.5
2023-02-25T16:45:05.025Z,0.5
2023-02-25T16:46:21.273Z,0.5
2023-02-25T16:47:37.512Z,0.5
2023-02-25T16:48:53.755Z,0.5
2023-02-25T16:50:09.983Z,0.5
2023-02-25T16:51:26.238Z,0.5
2023-02-25T16:52:42.466Z,0.5
2023-02-25T16:53:58.703Z,0.4
2023-02-25T16:55:14.965Z,0.3
2023-02-25T16:56:31.187Z,0.3
2023-02-25T16:57:46.429Z,0.2
2023-02-25T16:59:02.685Z,0.1
2023-02-25T17:00:18.931Z,0
2023-02-25T17:01:35.162Z,0
2023-02-25T17:02:51.411Z,-0.1
2023-02-25T17:04:07.678Z,-0.1
2023-02-25T17:05:23.944Z,-0.2
2023-02-25T17:06:40.161Z,-0.2
2023-02-25T17:07:56.477Z,-0.1
2023-02-25T17:09:12.767Z,-0.1
2023-02-25T17:10:29.014Z,-0.1
2023-02-25T17:11:45.261Z,-0.1
2023-02-25T17:13:01.496Z,-0.1
2023-02-25T17:14:17.800Z,0
2023-02-25T17:15:33.102Z,0
2023-02-25T17:16:49.390Z,0.1
2023-02-25T17:18:05.693Z,0.1
2023-02-25T17:19:21.985Z,0.1
2023-02-25T17:20:38.277Z,0.1
2023-02-25T17:21:54.568Z,0.1
2023-02-25T17:23:10.879Z,0
2023-02-25T17:24:27.166Z,0
2023-02-25T17:25:43.451Z,0
2023-02-25T17:28:16.050Z,0
2023-02-25T17:29:32.350Z,0
2023-02-25T17:30:48.628Z,-0.1
2023-02-25T17:32:04.902Z,-0.1
2023-02-25T17:33:20.249Z,-0.1
2023-02-25T17:34:36.543Z,-0.1
2023-02-25T17:35:52.835Z,-0.1
2023-02-25T17:37:09.125Z,-0.1